createdAt,value
2023-02-08T00:00:02.330Z,23.63
2023-02-08T00:02:30.415Z,23.25
2023-02-08T00:04:58.437Z,22.40
2023-02-08T00:07:26.741Z,20.70
2023-02-08T00:09:54.823Z,20.92
2023-02-08T00:12:24.428Z,23.33
2023-02-08T00:14:52.480Z,22.33
2023-02-08T00:17:20.565Z,24.27
2023-02-08T00:19:48.599Z,23.02
2023-02-08T00:22:16.667Z,26.20
2023-02-08T00:24:44.649Z,22.25
2023-02-08T00:27:12.745Z,22.45
2023-02-08T00:29:42.192Z,23.65
2023-02-08T00:32:10.626Z,24.20
2023-02-08T00:34:38.912Z,22.15
2023-02-08T00:37:07.433Z,24.33
2023-02-08T00:39:35.514Z,21.42
2023-02-08T00:42:03.503Z,25.98
2023-02-08T00:44:31.732Z,21.77
2023-02-08T00:47:01.060Z,21.48
2023-02-08T00:49:29.084Z,21.92
2023-02-08T00:51:57.188Z,22.77
2023-02-08T00:54:25.223Z,23.27
2023-02-08T00:56:53.306Z,22.02
2023-02-08T00:59:21.514Z,22.77
2023-02-08T01:01:49.582Z,22.90
2023-02-08T01:04:18.978Z,22.63
2023-02-08T01:06:46.986Z,23.50
2023-02-08T01:09:15.002Z,23.75
2023-02-08T01:11:42.988Z,25.95
2023-02-08T01:14:11.663Z,20.63
2023-02-08T01:16:40.036Z,22.15
2023-02-08T01:19:08.100Z,23.83
2023-02-08T01:21:39.950Z,24.05
2023-02-08T01:24:08.627Z,23.73
2023-02-08T01:26:36.750Z,22.60
2023-02-08T01:29:05.206Z,24.55
2023-02-08T01:31:36.328Z,21.77
2023-02-08T01:34:06.347Z,24.00
2023-02-08T01:36:35.428Z,24.13
2023-02-08T01:39:06.966Z,23.25
2023-02-08T01:41:36.887Z,27.08
2023-02-08T01:44:41.308Z,24.02
2023-02-08T01:47:09.406Z,25.08
2023-02-08T01:49:39.125Z,28.13
2023-02-08T01:52:12.122Z,28.02
2023-02-08T01:54:46.344Z,28.23
2023-02-08T01:57:14.572Z,25.40
2023-02-08T01:59:46.907Z,24.60
2023-02-08T02:02:18.531Z,23.38
2023-02-08T02:04:47.219Z,21.45
2023-02-08T02:07:15.716Z,24.48
2023-02-08T02:09:50.170Z,24.83
2023-02-08T02:12:19.175Z,27.05
2023-02-08T02:14:47.264Z,20.92
2023-02-08T02:17:17.670Z,24.67
2023-02-08T02:19:53.291Z,23.45
2023-02-08T02:22:47.893Z,23.92
2023-02-08T02:26:00.898Z,26.85
2023-02-08T02:28:51.020Z,22.80
2023-02-08T02:31:54.326Z,21.80
2023-02-08T02:34:27.758Z,24.60
2023-02-08T02:37:03.719Z,23.40
2023-02-08T02:39:41.009Z,21.58
2023-02-08T02:42:31.562Z,21.13
2023-02-08T02:45:10.036Z,22.77
2023-02-08T02:47:46.752Z,22.17
2023-02-08T02:50:22.074Z,20.85
2023-02-08T02:52:57.482Z,23.67
2023-02-08T02:55:28.341Z,23.52
2023-02-08T02:57:59.583Z,23.90
2023-02-08T03:00:31.013Z,22.15
2023-02-08T03:03:00.422Z,21.40
2023-02-08T03:05:30.130Z,23.17
2023-02-08T03:08:12.841Z,24.00
2023-02-08T03:11:08.051Z,26.37
2023-02-08T03:13:55.129Z,23.30
2023-02-08T03:16:32.404Z,20.65
2023-02-08T03:19:08.545Z,24.08
2023-02-08T03:21:43.191Z,22.88
2023-02-08T03:24:23.920Z,19.35
2023-02-08T03:26:59.209Z,22.77
2023-02-08T03:29:42.626Z,24.40
2023-02-08T03:32:14.534Z,22.05
2023-02-08T03:34:49.052Z,21.83
2023-02-08T03:37:21.985Z,20.80
2023-02-08T03:39:52.971Z,22.85
2023-02-08T03:42:24.204Z,22.53
2023-02-08T03:44:55.882Z,23.13
2023-02-08T03:47:27.097Z,21.75
2023-02-08T03:50:01.069Z,22.02
2023-02-08T03:52:31.287Z,22.45
2023-02-08T03:55:02.793Z,24.67
2023-02-08T03:57:33.537Z,22.48
2023-02-08T04:00:06.760Z,19.92
2023-02-08T04:02:38.432Z,22.33
2023-02-08T04:05:09.551Z,21.30
2023-02-08T04:07:37.856Z,22.23
2023-02-08T04:10:06.319Z,22.90
2023-02-08T04:12:34.362Z,20.58
2023-02-08T04:15:02.347Z,22.73
2023-02-08T04:17:30.361Z,21.60
2023-02-08T04:19:58.375Z,20.38
2023-02-08T04:22:27.855Z,22.00
2023-02-08T04:24:55.910Z,20.67
2023-02-08T04:27:23.983Z,22.92
2023-02-08T04:29:51.982Z,21.58
2023-02-08T04:32:19.997Z,21.08
2023-02-08T04:34:48.030Z,20.23
2023-02-08T04:37:16.026Z,21.40
2023-02-08T04:39:45.440Z,19.87
2023-02-08T04:42:13.486Z,21.90
2023-02-08T04:44:41.497Z,22.20
2023-02-08T04:47:09.467Z,20.35
2023-02-08T04:49:37.493Z,21.17
2023-02-08T04:52:05.974Z,23.77
2023-02-08T04:54:34.146Z,22.70
2023-02-08T04:57:03.659Z,21.15
2023-02-08T04:59:31.729Z,22.23
2023-02-08T05:02:00.537Z,20.00
2023-02-08T05:04:28.658Z,21.90
2023-02-08T05:06:56.647Z,19.83
2023-02-08T05:09:24.591Z,21.33
2023-02-08T05:11:52.613Z,22.30
2023-02-08T05:14:22.208Z,22.80
2023-02-08T05:16:50.192Z,20.60
2023-02-08T05:19:18.147Z,18.27
2023-02-08T05:21:46.151Z,21.38
2023-02-08T05:24:14.167Z,20.75
2023-02-08T05:26:42.593Z,19.70
2023-02-08T05:29:11.016Z,17.83
2023-02-08T05:31:40.493Z,19.35
2023-02-08T05:34:08.495Z,19.55
2023-02-08T05:36:36.769Z,20.23
2023-02-08T05:39:05.196Z,20.33
2023-02-08T05:41:33.341Z,21.23
2023-02-08T05:44:01.401Z,20.08
2023-02-08T05:46:29.677Z,22.20
2023-02-08T05:48:59.162Z,20.25
2023-02-08T05:51:27.160Z,18.98
2023-02-08T05:53:55.275Z,21.90
2023-02-08T05:56:23.301Z,23.10
2023-02-08T05:58:51.285Z,19.97
2023-02-08T06:01:19.455Z,23.85
2023-02-08T06:03:47.552Z,25.33
2023-02-08T06:06:17.154Z,20.92
2023-02-08T06:08:45.203Z,19.58
2023-02-08T06:11:13.334Z,22.38
2023-02-08T06:13:41.319Z,23.13
2023-02-08T06:16:09.667Z,20.07
2023-02-08T06:18:37.610Z,20.15
2023-02-08T06:21:05.750Z,20.80
2023-02-08T06:23:35.091Z,23.85
2023-02-08T06:26:03.373Z,22.10
2023-02-08T06:28:31.410Z,21.75
2023-02-08T06:30:59.431Z,18.17
2023-02-08T06:33:27.476Z,21.00
2023-02-08T06:35:55.402Z,22.02
2023-02-08T06:38:23.730Z,20.33
2023-02-08T06:40:53.063Z,20.25
2023-02-08T06:43:21.053Z,19.95
2023-02-08T06:45:49.125Z,22.35
2023-02-08T06:48:17.140Z,23.05
2023-02-08T06:50:45.293Z,21.10
2023-02-08T06:53:13.254Z,22.50
2023-02-08T06:55:41.191Z,21.75
2023-02-08T06:58:11.242Z,22.13
2023-02-08T07:00:39.598Z,21.30
2023-02-08T07:03:07.781Z,20.43
2023-02-08T07:05:36.122Z,22.27
2023-02-08T07:08:04.404Z,19.77
2023-02-08T07:10:32.518Z,22.38
2023-02-08T07:13:00.794Z,18.17
2023-02-08T07:15:30.929Z,21.50
2023-02-08T07:17:58.911Z,21.75
2023-02-08T07:20:26.877Z,21.92
2023-02-08T07:22:54.927Z,20.30
2023-02-08T07:25:23.333Z,20.23
2023-02-08T07:27:51.350Z,21.03
2023-02-08T07:30:19.553Z,23.20
2023-02-08T07:32:48.904Z,21.67
2023-02-08T07:35:16.911Z,20.52
2023-02-08T07:37:44.842Z,21.90
2023-02-08T07:40:13.118Z,21.58
2023-02-08T07:42:41.103Z,22.45
2023-02-08T07:45:09.570Z,19.35
2023-02-08T07:47:37.529Z,21.83
2023-02-08T07:50:07.595Z,20.60
2023-02-08T07:52:35.549Z,21.05
2023-02-08T07:55:03.590Z,22.90
2023-02-08T07:57:31.542Z,23.70
2023-02-08T07:59:59.560Z,20.17
2023-02-08T08:02:27.514Z,20.15
2023-02-08T08:04:55.558Z,21.67
2023-02-08T08:07:24.926Z,23.65
2023-02-08T08:09:52.929Z,21.65
2023-02-08T08:12:20.894Z,25.60
2023-02-08T08:14:48.941Z,20.77
2023-02-08T08:17:17.007Z,21.08
2023-02-08T08:19:45.025Z,23.13
2023-02-08T08:22:13.312Z,22.67
2023-02-08T08:24:42.583Z,21.88
2023-02-08T08:27:10.603Z,21.77
2023-02-08T08:29:39.026Z,21.23
2023-02-08T08:32:10.263Z,23.80
2023-02-08T08:34:39.489Z,22.00
2023-02-08T08:37:07.498Z,22.33
2023-02-08T08:39:37.104Z,21.45
2023-02-08T08:42:06.567Z,23.58
2023-02-08T08:44:34.534Z,21.47
2023-02-08T08:47:02.977Z,23.40
2023-02-08T08:49:30.978Z,22.63
2023-02-08T08:51:59.327Z,22.60
2023-02-08T08:54:27.356Z,24.15
2023-02-08T08:56:55.410Z,26.63
2023-02-08T08:59:25.062Z,22.45
2023-02-08T09:01:53.117Z,23.83
2023-02-08T09:04:22.744Z,24.63
2023-02-08T09:06:50.766Z,23.48
2023-02-08T09:09:19.035Z,24.75
2023-02-08T09:11:47.276Z,32.03
2023-02-08T09:14:15.378Z,23.98
2023-02-08T09:16:47.993Z,23.00
2023-02-08T09:19:17.243Z,25.67
2023-02-08T09:21:45.850Z,22.20
2023-02-08T09:24:13.869Z,23.92
2023-02-08T09:26:41.834Z,22.33
2023-02-08T09:29:09.982Z,25.55
2023-02-08T09:31:39.443Z,23.70
2023-02-08T09:34:10.856Z,24.17
2023-02-08T09:36:40.831Z,24.90
2023-02-08T09:39:11.700Z,22.33
2023-02-08T09:42:00.386Z,23.10
2023-02-08T09:44:37.376Z,24.52
2023-02-08T09:47:09.325Z,23.58
2023-02-08T09:49:43.998Z,24.33
2023-02-08T09:52:14.453Z,22.08
2023-02-08T09:54:47.222Z,26.35
2023-02-08T09:57:19.275Z,23.20
2023-02-08T09:59:53.866Z,23.67
2023-02-08T10:02:27.483Z,24.10
2023-02-08T10:05:03.430Z,21.33
2023-02-08T10:07:33.081Z,22.92
2023-02-08T10:10:03.586Z,22.77
2023-02-08T10:12:42.162Z,24.08
2023-02-08T10:15:23.036Z,24.35
2023-02-08T10:18:18.646Z,25.50
2023-02-08T10:21:00.675Z,23.50
2023-02-08T10:23:48.887Z,25.55
2023-02-08T10:26:26.106Z,25.30
2023-02-08T10:29:16.403Z,24.45
2023-02-08T10:31:56.125Z,26.17
2023-02-08T10:34:36.851Z,24.35
2023-02-08T10:37:14.656Z,21.77
2023-02-08T10:39:42.820Z,26.08
2023-02-08T10:42:16.769Z,23.75
2023-02-08T10:45:03.137Z,23.70
2023-02-08T10:47:43.257Z,26.85
2023-02-08T10:50:21.867Z,23.40
2023-02-08T10:52:51.243Z,24.27
2023-02-08T10:55:21.614Z,21.88
2023-02-08T10:57:52.513Z,27.50
2023-02-08T11:00:22.438Z,26.45
2023-02-08T11:02:52.797Z,25.17
2023-02-08T11:05:23.369Z,26.70
2023-02-08T11:08:07.024Z,25.40
2023-02-08T11:10:36.432Z,26.10
2023-02-08T11:13:07.364Z,29.65
2023-02-08T11:15:41.054Z,25.02
2023-02-08T11:18:20.447Z,26.23
2023-02-08T11:20:51.162Z,24.58
2023-02-08T11:23:25.874Z,25.23
2023-02-08T11:25:55.190Z,25.27
2023-02-08T11:28:26.350Z,26.30
2023-02-08T11:31:03.189Z,24.02
2023-02-08T11:33:31.467Z,23.90
2023-02-08T11:36:05.706Z,21.15
2023-02-08T11:38:37.686Z,24.00
2023-02-08T11:41:16.651Z,25.83
2023-02-08T11:43:45.429Z,23.95
2023-02-08T11:46:13.532Z,23.08
2023-02-08T11:48:45.638Z,21.50
2023-02-08T11:51:24.433Z,21.55
2023-02-08T11:53:55.516Z,20.77
2023-02-08T11:56:25.121Z,21.40
2023-02-08T11:59:02.273Z,19.67
2023-02-08T12:01:32.053Z,20.98
2023-02-08T12:04:03.226Z,21.08
2023-02-08T12:07:04.921Z,24.52
2023-02-08T12:10:17.785Z,19.05
2023-02-08T12:13:03.116Z,18.65
2023-02-08T12:15:51.358Z,19.40
2023-02-08T12:18:46.632Z,19.87
2023-02-08T12:21:19.307Z,18.33
2023-02-08T12:23:54.215Z,16.63
2023-02-08T12:26:35.167Z,18.88
2023-02-08T12:29:21.186Z,19.88
2023-02-08T12:32:07.007Z,21.48
2023-02-08T12:34:56.773Z,18.77
2023-02-08T12:37:59.963Z,21.55
2023-02-08T12:40:53.965Z,23.15
2023-02-08T12:43:42.512Z,20.65
2023-02-08T12:46:27.199Z,24.98
2023-02-08T12:49:29.510Z,23.77
2023-02-08T12:52:05.838Z,22.08
2023-02-08T12:54:41.204Z,21.98
2023-02-08T12:57:13.400Z,21.55
2023-02-08T12:59:45.570Z,18.10
2023-02-08T13:02:20.112Z,21.70
2023-02-08T13:04:50.844Z,19.03
2023-02-08T13:07:23.097Z,20.30
2023-02-08T13:09:58.658Z,20.57
2023-02-08T13:12:31.537Z,18.58
2023-02-08T13:15:05.351Z,15.70
2023-02-08T13:17:46.116Z,19.33
2023-02-08T13:20:39.017Z,17.58
2023-02-08T13:23:16.409Z,16.88
2023-02-08T13:25:45.379Z,17.15
2023-02-08T13:28:19.800Z,18.20
2023-02-08T13:30:55.857Z,18.45
2023-02-08T13:33:32.168Z,16.35
2023-02-08T13:36:00.675Z,15.00
2023-02-08T13:38:31.687Z,16.63
2023-02-08T13:41:09.093Z,16.55
2023-02-08T13:43:44.869Z,14.95
2023-02-08T13:46:13.731Z,14.55
2023-02-08T13:48:49.123Z,13.75
2023-02-08T13:51:52.922Z,13.82
2023-02-08T13:54:21.543Z,14.60
2023-02-08T13:56:51.243Z,16.08
2023-02-08T13:59:44.883Z,14.38
2023-02-08T14:02:26.867Z,15.35
2023-02-08T14:05:18.071Z,15.30
2023-02-08T14:07:48.326Z,13.57
2023-02-08T14:10:37.580Z,12.70
2023-02-08T14:13:15.723Z,13.27
2023-02-08T14:15:44.200Z,14.18
2023-02-08T14:18:25.617Z,14.25
2023-02-08T14:21:03.659Z,15.23
2023-02-08T14:23:33.401Z,12.50
2023-02-08T14:26:08.859Z,16.33
2023-02-08T14:28:40.272Z,14.88
2023-02-08T14:31:11.081Z,13.55
2023-02-08T14:33:42.345Z,12.85
2023-02-08T14:36:28.814Z,15.10
2023-02-08T14:39:26.218Z,13.60
2023-02-08T14:42:00.163Z,13.82
2023-02-08T14:45:02.064Z,11.48
2023-02-08T14:48:24.303Z,14.68
2023-02-08T14:51:00.240Z,15.35
2023-02-08T14:53:49.003Z,13.65
2023-02-08T14:56:21.607Z,13.98
2023-02-08T14:58:52.798Z,12.55
2023-02-08T15:01:23.615Z,14.98
2023-02-08T15:03:55.748Z,12.73
2023-02-08T15:07:03.483Z,14.40
2023-02-08T15:09:37.058Z,17.17
2023-02-08T15:12:08.805Z,17.88
2023-02-08T15:14:38.366Z,14.60
2023-02-08T15:17:08.030Z,15.93
2023-02-08T15:19:38.454Z,13.70
2023-02-08T15:22:20.974Z,17.30
2023-02-08T15:24:55.356Z,16.85
2023-02-08T15:27:25.328Z,15.98
2023-02-08T15:29:53.678Z,18.90
2023-02-08T15:32:24.576Z,17.50
2023-02-08T15:34:57.164Z,16.83
2023-02-08T15:37:25.874Z,16.25
2023-02-08T15:39:57.416Z,15.73
2023-02-08T15:42:28.804Z,15.00
2023-02-08T15:44:57.580Z,17.10
2023-02-08T15:47:29.733Z,14.80
2023-02-08T15:49:58.974Z,17.35
2023-02-08T15:52:30.616Z,14.60
2023-02-08T15:55:00.024Z,15.50
2023-02-08T15:57:36.927Z,16.53
2023-02-08T16:00:07.538Z,18.02
2023-02-08T16:02:36.389Z,16.88
2023-02-08T16:05:18.338Z,16.55
2023-02-08T16:07:47.327Z,19.10
2023-02-08T16:10:30.387Z,16.30
2023-02-08T16:13:01.259Z,16.60
2023-02-08T16:15:37.142Z,14.55
2023-02-08T16:18:05.595Z,15.38
2023-02-08T16:20:35.733Z,17.20
2023-02-08T16:23:22.590Z,16.37
2023-02-08T16:25:52.219Z,15.35
2023-02-08T16:28:28.753Z,16.70
2023-02-08T16:30:58.608Z,16.70
2023-02-08T16:33:27.084Z,17.30
2023-02-08T16:36:01.617Z,18.08
2023-02-08T16:38:31.793Z,17.93
2023-02-08T16:41:12.134Z,19.48
2023-02-08T16:43:43.885Z,17.90
2023-02-08T16:46:25.195Z,16.98
2023-02-08T16:48:55.383Z,17.30
2023-02-08T16:51:26.391Z,16.60
2023-02-08T16:53:57.345Z,18.40
2023-02-08T16:56:26.766Z,19.33
2023-02-08T16:58:54.863Z,18.50
2023-02-08T17:01:24.179Z,21.25
2023-02-08T17:03:53.094Z,17.77
2023-02-08T17:06:30.243Z,20.50
2023-02-08T17:08:58.574Z,21.42
2023-02-08T17:11:28.347Z,23.23
2023-02-08T17:13:58.281Z,20.90
2023-02-08T17:16:27.817Z,19.63
2023-02-08T17:18:56.074Z,21.38
2023-02-08T17:21:24.396Z,21.25
2023-02-08T17:23:52.504Z,21.00
2023-02-08T17:26:24.078Z,20.63
2023-02-08T17:28:54.036Z,21.83
2023-02-08T17:31:22.321Z,20.65
2023-02-08T17:33:51.153Z,22.70
2023-02-08T17:36:19.239Z,21.38
2023-02-08T17:38:48.040Z,19.25
2023-02-08T17:41:18.002Z,21.30
2023-02-08T17:43:46.457Z,19.33
2023-02-08T17:46:19.168Z,20.50
2023-02-08T17:48:48.367Z,20.02
2023-02-08T17:51:19.253Z,20.92
2023-02-08T17:53:47.645Z,21.17
2023-02-08T17:56:18.016Z,21.20
2023-02-08T17:58:48.934Z,21.07
2023-02-08T18:01:22.624Z,23.63
2023-02-08T18:03:51.713Z,22.20
2023-02-08T18:06:19.766Z,21.77
2023-02-08T18:08:48.045Z,23.00
2023-02-08T18:11:20.086Z,21.35
2023-02-08T18:13:49.088Z,20.55
2023-02-08T18:16:18.996Z,19.63
2023-02-08T18:18:48.302Z,20.50
2023-02-08T18:21:18.127Z,18.40
2023-02-08T18:23:46.560Z,20.08
2023-02-08T18:26:16.419Z,18.90
2023-02-08T18:28:44.898Z,19.42
2023-02-08T18:31:15.184Z,19.15
2023-02-08T18:33:44.164Z,18.50
2023-02-08T18:36:15.592Z,18.90
2023-02-08T18:38:46.157Z,19.98
2023-02-08T18:41:16.043Z,21.50
2023-02-08T18:43:44.331Z,22.77
2023-02-08T18:46:15.266Z,20.08
2023-02-08T18:48:43.822Z,21.20
2023-02-08T18:51:16.275Z,21.45
2023-02-08T18:53:46.682Z,23.27
2023-02-08T18:56:15.104Z,18.45
2023-02-08T18:58:44.091Z,18.17
2023-02-08T19:01:14.750Z,20.50
2023-02-08T19:03:43.703Z,19.80
2023-02-08T19:06:15.031Z,17.50
2023-02-08T19:08:44.291Z,20.15
2023-02-08T19:11:16.832Z,21.38
2023-02-08T19:13:44.812Z,17.65
2023-02-08T19:16:13.222Z,18.30
2023-02-08T19:18:41.435Z,18.45
2023-02-08T19:21:11.014Z,19.57
2023-02-08T19:23:40.424Z,17.10
2023-02-08T19:26:14.595Z,18.02
2023-02-08T19:28:42.551Z,19.58
2023-02-08T19:31:12.437Z,18.23
2023-02-08T19:33:42.321Z,18.40
2023-02-08T19:36:11.203Z,18.10
2023-02-08T19:38:40.868Z,17.25
2023-02-08T19:41:10.113Z,17.90
2023-02-08T19:43:38.534Z,17.27
2023-02-08T19:46:10.765Z,17.37
2023-02-08T19:48:38.973Z,17.02
2023-02-08T19:51:07.862Z,16.95
2023-02-08T19:53:36.171Z,15.95
2023-02-08T19:56:07.535Z,18.47
2023-02-08T19:58:36.923Z,15.63
2023-02-08T20:01:08.213Z,16.13
2023-02-08T20:03:36.434Z,16.80
2023-02-08T20:06:05.493Z,14.95
2023-02-08T20:08:35.463Z,16.95
2023-02-08T20:11:04.914Z,15.80
2023-02-08T20:13:32.875Z,14.75
2023-02-08T20:16:00.823Z,15.68
2023-02-08T20:18:28.954Z,16.15
2023-02-08T20:21:01.678Z,14.63
2023-02-08T20:23:29.803Z,14.70
2023-02-08T20:26:08.271Z,15.87
2023-02-08T20:28:36.849Z,14.85
2023-02-08T20:31:08.849Z,16.88
2023-02-08T20:33:37.501Z,15.23
2023-02-08T20:36:09.824Z,15.20
2023-02-08T20:38:38.387Z,14.90
2023-02-08T20:41:10.567Z,16.00
2023-02-08T20:43:39.095Z,15.40
2023-02-08T20:46:08.516Z,16.50
2023-02-08T20:48:36.835Z,20.38
2023-02-08T20:51:06.386Z,14.70
2023-02-08T20:53:35.336Z,16.80
2023-02-08T20:56:08.235Z,14.68
2023-02-08T20:58:36.292Z,14.68
2023-02-08T21:01:08.698Z,14.40
2023-02-08T21:03:36.782Z,16.52
2023-02-08T21:06:13.051Z,14.18
2023-02-08T21:08:41.069Z,15.07
2023-02-08T21:11:10.721Z,16.07
2023-02-08T21:13:39.038Z,15.73
2023-02-08T21:16:07.744Z,13.98
2023-02-08T21:18:35.836Z,14.00
2023-02-08T21:21:04.354Z,16.10
2023-02-08T21:23:32.882Z,12.68
2023-02-08T21:26:01.221Z,13.75
2023-02-08T21:28:30.907Z,14.68
2023-02-08T21:31:00.183Z,14.50
2023-02-08T21:33:28.710Z,14.68
2023-02-08T21:35:56.819Z,16.25
2023-02-08T21:38:24.870Z,16.75
2023-02-08T21:40:52.846Z,17.97
2023-02-08T21:43:20.820Z,19.60
2023-02-08T21:45:50.162Z,20.73
2023-02-08T21:48:18.140Z,16.38
2023-02-08T21:51:03.797Z,15.63
2023-02-08T21:53:49.465Z,18.08
2023-02-08T21:56:17.464Z,20.00
2023-02-08T21:58:45.517Z,17.55
2023-02-08T22:01:14.895Z,16.90
2023-02-08T22:03:42.875Z,16.48
2023-02-08T22:06:10.856Z,18.25
2023-02-08T22:08:38.839Z,18.70
2023-02-08T22:11:08.670Z,16.52
2023-02-08T22:13:36.941Z,17.90
2023-02-08T22:16:09.141Z,15.88
2023-02-08T22:18:41.342Z,17.85
2023-02-08T22:21:09.635Z,16.30
2023-02-08T22:23:37.567Z,16.65
2023-02-08T22:26:08.722Z,18.15
2023-02-08T22:28:37.371Z,16.00
2023-02-08T22:31:05.785Z,15.38
2023-02-08T22:33:33.933Z,15.02
2023-02-08T22:36:07.763Z,16.58
2023-02-08T22:38:35.869Z,14.73
2023-02-08T22:41:09.648Z,14.13
2023-02-08T22:43:37.682Z,15.90
2023-02-08T22:46:06.277Z,14.25
2023-02-08T22:48:34.755Z,13.70
2023-02-08T22:51:08.463Z,14.88
2023-02-08T22:53:36.901Z,16.70
2023-02-08T22:56:05.540Z,14.63
2023-02-08T22:58:33.858Z,15.10
2023-02-08T23:01:01.844Z,14.45
2023-02-08T23:03:29.867Z,16.70
2023-02-08T23:05:57.863Z,15.20
2023-02-08T23:08:27.203Z,13.95
2023-02-08T23:11:00.600Z,15.68
2023-02-08T23:13:29.517Z,14.90
2023-02-08T23:15:57.684Z,15.15
2023-02-08T23:18:27.088Z,16.15
2023-02-08T23:20:55.378Z,17.40
2023-02-08T23:23:23.464Z,15.80
2023-02-08T23:25:52.717Z,15.88
2023-02-08T23:28:20.793Z,17.03
2023-02-08T23:30:48.970Z,15.75
2023-02-08T23:33:16.996Z,14.88
2023-02-08T23:35:44.948Z,15.10
2023-02-08T23:38:12.917Z,15.80
2023-02-08T23:40:41.875Z,14.27
2023-02-08T23:43:11.184Z,16.45
2023-02-08T23:45:39.169Z,14.43
2023-02-08T23:48:07.258Z,16.63
2023-02-08T23:50:35.674Z,14.75
2023-02-08T23:53:03.686Z,14.25
2023-02-08T23:55:31.785Z,13.70
2023-02-08T23:57:59.780Z,15.43
